Time;durP1;ratioP1;P1;durP2;ratioP2;P2;SDS_P1;SDS_P2;PMS_P1;PMS_P2;Temp;Humidity;BMP_temperature;BMP_pressure;BME280_temperature;BME280_humidity;BME280_pressure;Samples;Min_cycle;Max_cycle;Signal;HPM_P1;HPM_P2
2023/12/21 00:00:45;;;;;;;;;;;;;;;4.75;97.33;99647.09;4201609;28;19958;-70
2023/12/21 00:02:47;;;;;;;;;;;;;;;4.78;97.30;99628.03;4199101;28;19963;-70
2023/12/21 00:04:50;;;;;;;;;;;;;;;4.80;96.89;99626.88;4198916;28;20370;-70
2023/12/21 00:06:52;;;;;;;;;;;;;;;4.83;96.97;99612.34;4198629;28;19964;-69
2023/12/21 00:08:54;;;;;;;;;;;;;;;4.82;97.39;99599.97;4197169;28;20015;-69
2023/12/21 00:10:58;;;;;;;;;;;;;;;4.82;97.30;99583.91;4197009;28;19925;-69
2023/12/21 00:13:00;;;;;;;;;;;;;;;4.87;97.65;99581.56;4198221;28;19955;-69
2023/12/21 00:15:02;;;;;;;;;;;;;;;4.92;97.00;99576.56;4197203;28;20015;-70
2023/12/21 00:17:04;;;;;;;;;;;;;;;4.94;97.23;99563.84;4197911;28;20377;-70
2023/12/21 00:19:06;;;;;;;;;;;;;;;4.97;96.57;99560.81;4197016;28;19958;-69
2023/12/21 00:21:08;;;;;;;;;;;;;;;4.98;96.39;99549.09;4196564;28;19963;-70
2023/12/21 00:23:10;;;;;;;;;;;;;;;5.04;95.89;99550.28;4196121;28;20011;-69
2023/12/21 00:25:12;;;;;;;;;;;;;;;5.08;95.66;99529.34;4195679;28;20024;-70
2023/12/21 00:27:13;;;;;;;;;;;;;;;5.10;95.47;99528.19;4195184;28;20019;-70
2023/12/21 00:29:17;;;;;;;;;;;;;;;5.15;94.99;99531.16;4196777;28;20016;-70
2023/12/21 00:31:19;;;;;;;;;;;;;;;5.20;94.68;99517.28;4196103;28;19932;-70
2023/12/21 00:33:22;;;;;;;;;;;;;;;5.21;94.50;99508.25;4195414;28;20019;-70
2023/12/21 00:35:23;;;;;;;;;;;;;;;5.24;94.32;99511.41;4195285;28;20018;-70
2023/12/21 00:37:25;;;;;;;;;;;;;;;5.27;93.63;99504.88;4196262;28;20027;-70
2023/12/21 00:39:27;;;;;;;;;;;;;;;5.28;93.85;99482.44;4196358;28;20031;-70
2023/12/21 00:41:29;;;;;;;;;;;;;;;5.32;93.27;99472.22;4194725;28;20019;-70
2023/12/21 00:43:31;;;;;;;;;;;;;;;5.32;93.50;99483.75;4195862;28;20035;-70
2023/12/21 00:45:35;;;;;;;;;;;;;;;5.36;92.89;99481.56;4195956;28;20019;-70
2023/12/21 00:47:37;;;;;;;;;;;;;;;5.39;93.04;99481.22;4196005;28;20560;-70
2023/12/21 00:49:38;;;;;;;;;;;;;;;5.43;92.88;99476.38;4194926;28;20014;-69
2023/12/21 00:51:40;;;;;;;;;;;;;;;5.46;93.00;99470.66;4194703;28;19924;-70
2023/12/21 00:53:41;;;;;;;;;;;;;;;5.47;92.91;99461.59;4195759;28;20010;-70
2023/12/21 00:55:43;;;;;;;;;;;;;;;5.48;92.92;99431.97;4195703;28;20020;-70
2023/12/21 00:57:45;;;;;;;;;;;;;;;5.50;92.87;99466.63;4195246;28;20023;-70
2023/12/21 00:59:46;;;;;;;;;;;;;;;5.53;93.17;99452.88;4195454;28;20026;-70
2023/12/21 01:01:50;;;;;;;;;;;;;;;5.53;92.82;99434.13;4195391;28;19932;-69
2023/12/21 01:03:51;;;;;;;;;;;;;;;5.54;92.76;99451.88;4195663;28;20536;-70
2023/12/21 01:05:53;;;;;;;;;;;;;;;5.55;92.76;99450.88;4196001;28;20015;-70
2023/12/21 01:07:55;;;;;;;;;;;;;;;5.56;92.39;99456.06;4195736;28;19971;-70
2023/12/21 01:09:57;;;;;;;;;;;;;;;5.60;92.58;99440.44;4195165;28;20016;-70
2023/12/21 01:11:59;;;;;;;;;;;;;;;5.61;92.79;99442.09;4194858;28;20028;-70
2023/12/21 01:14:01;;;;;;;;;;;;;;;5.64;93.27;99430.22;4196300;28;20047;-70
2023/12/21 01:16:03;;;;;;;;;;;;;;;5.64;93.37;99424.84;4195430;28;20467;-70
2023/12/21 01:18:07;;;;;;;;;;;;;;;5.64;93.04;99414.97;4194575;28;20012;-70
2023/12/21 01:20:09;;;;;;;;;;;;;;;5.67;93.17;99427.19;4192725;28;20011;-70
2023/12/21 01:22:10;;;;;;;;;;;;;;;5.69;93.17;99422.47;4194676;28;20023;-70
2023/12/21 01:24:12;;;;;;;;;;;;;;;5.71;93.55;99410.56;4195710;28;19952;-70
2023/12/21 01:26:14;;;;;;;;;;;;;;;5.71;93.37;99388.31;4193940;28;20406;-70
2023/12/21 01:28:16;;;;;;;;;;;;;;;5.71;93.75;99405.22;4194246;28;20011;-70
2023/12/21 01:30:18;;;;;;;;;;;;;;;5.72;93.22;99406.03;4194911;28;20364;-69
2023/12/21 01:32:20;;;;;;;;;;;;;;;5.72;93.07;99404.22;4194509;28;19929;-69
2023/12/21 01:34:23;;;;;;;;;;;;;;;5.74;93.15;99398.69;4196020;28;20015;-70
2023/12/21 01:36:26;;;;;;;;;;;;;;;5.74;93.13;99377.25;4194138;28;20027;-70
2023/12/21 01:38:27;;;;;;;;;;;;;;;5.76;93.17;99392.09;4195087;28;20048;-70
2023/12/21 01:40:29;;;;;;;;;;;;;;;5.76;93.12;99416.22;4193915;28;20007;-69
2023/12/21 01:42:31;;;;;;;;;;;;;;;5.79;93.27;99380.22;4195779;28;20031;-69
2023/12/21 01:44:33;;;;;;;;;;;;;;;5.81;93.51;99399.59;4195160;28;20003;-70
2023/12/21 01:46:34;;;;;;;;;;;;;;;5.81;93.45;99386.22;4193327;28;20000;-70
2023/12/21 01:48:36;;;;;;;;;;;;;;;5.84;93.71;99419.88;4194688;28;19982;-69
2023/12/21 01:50:40;;;;;;;;;;;;;;;5.85;93.97;99365.28;4193396;28;19932;-69
2023/12/21 01:52:42;;;;;;;;;;;;;;;5.85;94.27;99363.41;4194091;28;20358;-69
2023/12/21 01:54:44;;;;;;;;;;;;;;;5.86;94.20;99361.56;4196975;28;20019;-70
2023/12/21 01:56:45;;;;;;;;;;;;;;;5.88;94.35;99364.91;4199274;28;20421;-70
2023/12/21 01:58:47;;;;;;;;;;;;;;;5.88;94.24;99351.53;4199014;28;19935;-70
2023/12/21 02:00:48;;;;;;;;;;;;;;;5.89;94.58;99359.38;4198202;28;19999;-69
2023/12/21 02:02:51;;;;;;;;;;;;;;;5.90;94.52;99361.03;4198570;28;20329;-70
2023/12/21 02:04:52;;;;;;;;;;;;;;;5.91;94.42;99343.13;4197495;28;20552;-69
2023/12/21 02:06:55;;;;;;;;;;;;;;;5.92;94.47;99339.41;4198161;28;19924;-70
2023/12/21 02:08:56;;;;;;;;;;;;;;;5.92;94.31;99352.81;4198730;28;20015;-70
2023/12/21 02:10:58;;;;;;;;;;;;;;;5.94;94.37;99332.00;4193321;28;20357;-70
2023/12/21 02:13:00;;;;;;;;;;;;;;;5.94;94.24;99318.59;4198119;28;19924;-70
2023/12/21 02:15:03;;;;;;;;;;;;;;;5.96;94.50;99319.28;4197911;28;20023;-70
2023/12/21 02:17:06;;;;;;;;;;;;;;;5.97;94.35;99334.34;4198667;28;20011;-70
2023/12/21 02:19:08;;;;;;;;;;;;;;;5.98;94.34;99324.50;4197303;28;20024;-70
2023/12/21 02:21:10;;;;;;;;;;;;;;;5.99;94.44;99304.69;4196434;28;20024;-70
2023/12/21 02:23:13;;;;;;;;;;;;;;;5.99;94.80;99302.88;4197474;28;20066;-70
2023/12/21 02:25:16;;;;;;;;;;;;;;;6.01;94.76;99318.75;4198014;28;19971;-70
2023/12/21 02:27:18;;;;;;;;;;;;;;;6.01;94.85;99295.47;4198489;28;20007;-70
2023/12/21 02:29:20;;;;;;;;;;;;;;;6.02;95.04;99305.19;4198253;28;20478;-70
2023/12/21 02:31:22;;;;;;;;;;;;;;;6.03;95.15;99320.22;4190604;28;20398;-69
2023/12/21 02:33:23;;;;;;;;;;;;;;;6.02;94.78;99331.97;4198652;28;20434;-69
2023/12/21 02:35:25;;;;;;;;;;;;;;;6.05;95.33;99298.59;4197429;28;19974;-69
2023/12/21 02:37:27;;;;;;;;;;;;;;;6.05;95.18;99278.00;4198355;28;20027;-69
2023/12/21 02:39:29;;;;;;;;;;;;;;;6.05;95.31;99269.97;4197504;28;20019;-69
2023/12/21 02:41:32;;;;;;;;;;;;;;;6.06;95.39;99301.09;4197614;28;20011;-69
2023/12/21 02:43:34;;;;;;;;;;;;;;;6.07;95.45;99288.56;4198526;28;20018;-69
2023/12/21 02:45:36;;;;;;;;;;;;;;;6.08;95.43;99285.69;4197637;28;20018;-69
2023/12/21 02:47:38;;;;;;;;;;;;;;;6.08;94.80;99288.38;4198289;28;19971;-69
2023/12/21 02:49:39;;;;;;;;;;;;;;;6.09;95.33;99287.34;4197147;28;20023;-69
2023/12/21 02:51:43;;;;;;;;;;;;;;;6.11;95.61;99284.47;4196788;28;20776;-70
2023/12/21 02:53:45;;;;;;;;;;;;;;;6.12;95.31;99280.78;4197900;28;19925;-69
2023/12/21 02:55:47;;;;;;;;;;;;;;;6.12;95.74;99275.44;4197837;28;20044;-70
2023/12/21 02:57:51;;;;;;;;;;;;;;;6.11;95.62;99285.31;4197697;28;20019;-70
2023/12/21 02:59:53;;;;;;;;;;;;;;;6.13;95.43;99259.16;4197346;28;20457;-69
2023/12/21 03:01:54;;;;;;;;;;;;;;;6.13;95.41;99253.78;4196332;28;20019;-69
2023/12/21 03:03:55;;;;;;;;;;;;;;;6.16;95.28;99262.47;4196421;28;20024;-69
2023/12/21 03:05:57;;;;;;;;;;;;;;;6.15;95.58;99261.66;4197012;28;19928;-69
2023/12/21 03:07:58;;;;;;;;;;;;;;;6.15;95.32;99275.06;4197294;28;20023;-69
2023/12/21 03:10:00;;;;;;;;;;;;;;;6.16;95.66;99255.28;4196244;28;19966;-69
2023/12/21 03:12:02;;;;;;;;;;;;;;;6.17;95.34;99245.38;4197939;28;20036;-69
2023/12/21 03:14:06;;;;;;;;;;;;;;;6.18;95.55;99241.69;4197614;28;20465;-69
2023/12/21 03:16:09;;;;;;;;;;;;;;;6.18;95.55;99255.94;4195862;28;20012;-70
2023/12/21 03:18:12;;;;;;;;;;;;;;;6.19;95.83;99240.66;4196824;28;20015;-69
2023/12/21 03:20:14;;;;;;;;;;;;;;;6.19;95.95;99230.78;4196567;28;20028;-70
2023/12/21 03:22:16;;;;;;;;;;;;;;;6.21;95.92;99219.88;4195557;28;20036;-70
2023/12/21 03:24:18;;;;;;;;;;;;;;;6.20;95.96;99237.78;4196266;28;20027;-70
2023/12/21 03:26:22;;;;;;;;;;;;;;;6.22;96.12;99259.06;4195584;28;20028;-70
2023/12/21 03:28:23;;;;;;;;;;;;;;;6.22;96.43;99235.78;4196120;28;20019;-69
2023/12/21 03:30:27;;;;;;;;;;;;;;;6.22;96.29;99219.69;4196433;28;20011;-70
2023/12/21 03:32:28;;;;;;;;;;;;;;;6.22;96.20;99234.94;4196631;28;20437;-69
2023/12/21 03:34:30;;;;;;;;;;;;;;;6.22;96.02;99214.34;4195526;28;20003;-70
2023/12/21 03:36:32;;;;;;;;;;;;;;;6.24;96.29;99216.81;4197348;28;20035;-70
2023/12/21 03:38:34;;;;;;;;;;;;;;;6.24;96.04;99206.09;4197082;28;20470;-70
2023/12/21 03:40:36;;;;;;;;;;;;;;;6.24;96.40;99231.06;4196314;28;20027;-69
2023/12/21 03:42:38;;;;;;;;;;;;;;;6.26;96.19;99209.41;4194480;28;20071;-69
2023/12/21 03:44:40;;;;;;;;;;;;;;;6.25;96.31;99199.72;4195682;28;20016;-69
2023/12/21 03:46:43;;;;;;;;;;;;;;;6.25;96.27;99213.09;4195879;28;20031;-70
2023/12/21 03:48:45;;;;;;;;;;;;;;;6.27;96.19;99227.16;4195750;28;20027;-69
2023/12/21 03:50:46;;;;;;;;;;;;;;;6.27;96.22;99206.56;4194921;28;20020;-70
2023/12/21 03:52:48;;;;;;;;;;;;;;;6.27;96.43;99203.03;4195331;28;20333;-70
2023/12/21 03:54:49;;;;;;;;;;;;;;;6.27;96.17;99203.88;4196143;28;20426;-69
2023/12/21 03:56:51;;;;;;;;;;;;;;;6.29;96.56;99209.06;4194993;28;19982;-69
2023/12/21 03:58:53;;;;;;;;;;;;;;;6.28;96.42;99192.09;4196267;28;20365;-70
2023/12/21 04:00:54;;;;;;;;;;;;;;;6.29;96.58;99201.81;4196671;28;20039;-70
2023/12/21 04:02:57;;;;;;;;;;;;;;;6.31;96.61;99207.00;4196413;28;19924;-69
2023/12/21 04:04:59;;;;;;;;;;;;;;;6.31;97.14;99193.59;4196235;28;20471;-69
2023/12/21 04:07:01;;;;;;;;;;;;;;;6.31;96.98;99182.88;4195777;28;20019;-70
2023/12/21 04:09:03;;;;;;;;;;;;;;;6.32;97.15;99179.19;4196986;28;20058;-69
2023/12/21 04:11:05;;;;;;;;;;;;;;;6.31;96.99;99177.50;4196817;28;20430;-70
2023/12/21 04:13:07;;;;;;;;;;;;;;;6.31;96.91;99175.66;4196346;28;19959;-69
2023/12/21 04:15:11;;;;;;;;;;;;;;;6.33;96.64;99180.81;4194412;28;19932;-70
2023/12/21 04:17:12;;;;;;;;;;;;;;;6.34;96.66;99174.44;4195160;28;20460;-70
2023/12/21 04:19:16;;;;;;;;;;;;;;;6.34;97.19;99163.72;4195619;28;20015;-69
2023/12/21 04:21:17;;;;;;;;;;;;;;;6.36;97.22;99168.91;4194953;28;20023;-70
2023/12/21 04:23:18;;;;;;;;;;;;;;;6.35;97.51;99168.09;4194467;28;20040;-69
2023/12/21 04:25:22;;;;;;;;;;;;;;;6.36;97.59;99156.31;4194455;28;19948;-69
2023/12/21 04:27:24;;;;;;;;;;;;;;;6.37;97.41;99159.84;4195352;28;20027;-69
2023/12/21 04:29:26;;;;;;;;;;;;;;;6.38;97.38;99161.50;4195945;28;20015;-70
2023/12/21 04:31:28;;;;;;;;;;;;;;;6.38;97.54;99165.03;4195719;28;20371;-69
2023/12/21 04:33:29;;;;;;;;;;;;;;;6.40;97.73;99154.09;4196538;28;20036;-69
2023/12/21 04:35:32;;;;;;;;;;;;;;;6.40;97.70;99172.88;4196670;28;19928;-70
2023/12/21 04:37:34;;;;;;;;;;;;;;;6.40;97.58;99162.16;4196604;28;20015;-70
2023/12/21 04:39:36;;;;;;;;;;;;;;;6.41;97.69;99161.13;4195658;28;20039;-69
2023/12/21 04:41:38;;;;;;;;;;;;;;;6.42;97.64;99166.28;4196103;28;20031;-70
2023/12/21 04:43:39;;;;;;;;;;;;;;;6.41;97.92;99159.28;4196134;28;20019;-70
2023/12/21 04:45:41;;;;;;;;;;;;;;;6.42;97.70;99162.78;4195223;28;19928;-69
2023/12/21 04:47:44;;;;;;;;;;;;;;;6.42;97.70;99154.75;4195844;28;20019;-70
2023/12/21 04:49:46;;;;;;;;;;;;;;;6.43;97.56;99159.91;4195288;28;20035;-70
2023/12/21 04:51:49;;;;;;;;;;;;;;;6.44;97.51;99160.72;4194686;28;20027;-69
2023/12/21 04:53:51;;;;;;;;;;;;;;;6.45;97.73;99151.69;4195431;28;20442;-69
2023/12/21 04:55:53;;;;;;;;;;;;;;;6.45;97.81;99155.19;4195491;28;19967;-69
2023/12/21 04:57:55;;;;;;;;;;;;;;;6.46;97.75;99159.53;4196068;28;20059;-69
2023/12/21 04:59:57;;;;;;;;;;;;;;;6.47;97.66;99152.31;4195011;28;20019;-69
2023/12/21 05:01:59;;;;;;;;;;;;;;;6.47;97.97;99150.47;4193316;28;20027;-69
2023/12/21 05:04:04;;;;;;;;;;;;;;;6.48;97.96;99145.94;4194655;28;20170;-69
2023/12/21 05:06:06;;;;;;;;;;;;;;;6.49;98.17;99139.56;4192337;28;20028;-70
2023/12/21 05:08:09;;;;;;;;;;;;;;;6.50;98.26;99146.56;4194298;28;20361;-69
2023/12/21 05:10:11;;;;;;;;;;;;;;;6.52;98.26;99143.69;4193430;28;20019;-69
2023/12/21 05:12:13;;;;;;;;;;;;;;;6.52;97.96;99143.69;4193967;28;20032;-69
2023/12/21 05:14:15;;;;;;;;;;;;;;;6.52;98.30;99171.38;4195791;28;20026;-69
2023/12/21 05:16:17;;;;;;;;;;;;;;;6.53;98.48;99148.06;4194488;28;20027;-69
2023/12/21 05:18:19;;;;;;;;;;;;;;;6.54;98.63;99139.81;4195454;28;20504;-70
2023/12/21 05:20:21;;;;;;;;;;;;;;;6.55;98.35;99136.13;4192624;28;20054;-70
2023/12/21 05:22:23;;;;;;;;;;;;;;;6.56;98.62;99126.22;4192850;28;20385;-70
2023/12/21 05:24:25;;;;;;;;;;;;;;;6.57;98.79;99136.75;4190560;28;20064;-70
2023/12/21 05:26:27;;;;;;;;;;;;;;;6.58;98.48;99129.53;4192839;28;20016;-70
2023/12/21 05:28:29;;;;;;;;;;;;;;;6.58;98.56;99122.34;4194440;28;20019;-70
2023/12/21 05:30:31;;;;;;;;;;;;;;;6.59;98.50;99109.75;4194696;28;20035;-70
2023/12/21 05:32:33;;;;;;;;;;;;;;;6.60;98.68;99111.38;4195264;28;20019;-70
2023/12/21 05:34:35;;;;;;;;;;;;;;;6.61;98.81;99102.31;4194987;28;19964;-70
2023/12/21 05:36:37;;;;;;;;;;;;;;;6.61;98.75;99100.47;4194143;28;19924;-69
2023/12/21 05:38:39;;;;;;;;;;;;;;;6.63;98.57;99092.22;4193459;28;20024;-70
2023/12/21 05:40:41;;;;;;;;;;;;;;;6.64;99.07;99094.72;4183409;28;20043;-69
2023/12/21 05:42:43;;;;;;;;;;;;;;;6.65;98.97;99084.84;4190208;28;20015;-69
2023/12/21 05:44:44;;;;;;;;;;;;;;;6.66;99.39;99094.53;4189906;28;19988;-71
2023/12/21 05:46:46;;;;;;;;;;;;;;;6.67;99.59;99091.66;4190420;28;19940;-69
2023/12/21 05:48:48;;;;;;;;;;;;;;;6.68;99.75;99071.84;4191557;28;20023;-69
2023/12/21 05:50:50;;;;;;;;;;;;;;;6.68;99.29;99081.75;4191620;28;20350;-69
2023/12/21 05:52:52;;;;;;;;;;;;;;;6.70;99.50;99085.06;4191927;28;20367;-69
2023/12/21 05:54:54;;;;;;;;;;;;;;;6.70;99.58;99087.75;4193891;28;20015;-70
2023/12/21 05:56:58;;;;;;;;;;;;;;;6.70;99.79;99063.63;4192767;28;20019;-69
2023/12/21 05:59:00;;;;;;;;;;;;;;;6.71;99.47;99084.06;4194102;28;20028;-69
2023/12/21 06:01:02;;;;;;;;;;;;;;;6.72;99.56;99069.59;4192769;28;20023;-69
2023/12/21 06:03:04;;;;;;;;;;;;;;;6.73;99.43;99067.78;4194629;28;20027;-69
2023/12/21 06:05:07;;;;;;;;;;;;;;;6.74;99.67;99061.38;4194992;28;20759;-69
2023/12/21 06:07:07;;;;;;;;;;;;;;;6.74;99.45;99061.38;4194771;28;20011;-69
2023/12/21 06:09:09;;;;;;;;;;;;;;;6.75;99.69;99052.31;4193041;28;20019;-69
2023/12/21 06:11:11;;;;;;;;;;;;;;;6.76;99.44;99057.47;4191255;28;20035;-69
2023/12/21 06:13:15;;;;;;;;;;;;;;;6.76;99.79;99038.69;4195309;28;20369;-68
2023/12/21 06:15:17;;;;;;;;;;;;;;;6.77;99.92;99029.63;4194921;28;20051;-69
2023/12/21 06:17:18;;;;;;;;;;;;;;;6.78;100.00;99031.28;4194495;28;19924;-69
2023/12/21 06:19:20;;;;;;;;;;;;;;;6.79;100.00;99027.56;4191993;28;20942;-69
2023/12/21 06:21:23;;;;;;;;;;;;;;;6.79;100.00;99030.25;4191989;28;20107;-70
2023/12/21 06:23:25;;;;;;;;;;;;;;;6.80;100.00;99029.25;4194728;28;20023;-69
2023/12/21 06:25:26;;;;;;;;;;;;;;;6.80;100.00;99017.66;4192932;28;20027;-69
2023/12/21 06:27:28;;;;;;;;;;;;;;;6.80;100.00;99023.88;4194026;28;19959;-69
2023/12/21 06:29:31;;;;;;;;;;;;;;;6.80;99.84;99023.88;4193309;28;20036;-69
2023/12/21 06:31:33;;;;;;;;;;;;;;;6.80;99.58;99007.78;4193760;28;20023;-69
2023/12/21 06:33:35;;;;;;;;;;;;;;;6.80;99.38;99012.28;4195246;28;20474;-69
2023/12/21 06:35:37;;;;;;;;;;;;;;;6.80;99.47;99013.16;4194956;28;20007;-69
2023/12/21 06:37:39;;;;;;;;;;;;;;;6.81;99.70;99001.38;4191769;28;20405;-69
2023/12/21 06:39:41;;;;;;;;;;;;;;;6.80;99.50;98989.00;4192592;28;20039;-71
2023/12/21 06:41:44;;;;;;;;;;;;;;;6.80;99.66;98986.31;4196521;28;20016;-70
2023/12/21 06:43:46;;;;;;;;;;;;;;;6.81;99.61;98997.88;4198158;28;20027;-70
2023/12/21 06:45:49;;;;;;;;;;;;;;;6.80;99.33;98985.47;4197407;28;20027;-70
2023/12/21 06:47:51;;;;;;;;;;;;;;;6.79;99.22;98979.28;4197945;28;20011;-70
2023/12/21 06:49:53;;;;;;;;;;;;;;;6.81;99.62;98989.81;4196383;28;20011;-70
2023/12/21 06:51:55;;;;;;;;;;;;;;;6.81;99.65;98979.91;4196329;28;20023;-69
2023/12/21 06:53:56;;;;;;;;;;;;;;;6.81;99.59;98977.22;4197821;28;20011;-69
2023/12/21 06:55:58;;;;;;;;;;;;;;;6.81;99.63;98961.13;4198479;28;20378;-70
2023/12/21 06:58:00;;;;;;;;;;;;;;;6.80;99.29;98956.78;4197735;28;19929;-70
2023/12/21 07:00:02;;;;;;;;;;;;;;;6.80;99.67;98948.75;4197511;28;20031;-70
2023/12/21 07:02:08;;;;;;;;;;;;;;;6.80;99.58;98943.38;4197740;28;20044;-70
2023/12/21 07:04:11;;;;;;;;;;;;;;;6.81;99.49;98942.34;4197050;28;20007;-69
2023/12/21 07:06:13;;;;;;;;;;;;;;;6.81;99.68;98931.59;4198079;28;20008;-69
2023/12/21 07:08:15;;;;;;;;;;;;;;;6.81;99.77;98950.38;4197236;28;20367;-69
2023/12/21 07:10:18;;;;;;;;;;;;;;;6.81;99.71;98923.56;4197138;28;20015;-69
2023/12/21 07:12:20;;;;;;;;;;;;;;;6.81;100.00;98926.22;4197633;28;20023;-69
2023/12/21 07:14:22;;;;;;;;;;;;;;;6.81;99.91;98902.09;4197439;28;20371;-69
2023/12/21 07:16:24;;;;;;;;;;;;;;;6.81;99.85;98907.44;4198034;28;20027;-69
2023/12/21 07:18:27;;;;;;;;;;;;;;;6.82;100.00;98897.56;4186622;28;20398;-70
2023/12/21 07:20:30;;;;;;;;;;;;;;;6.82;100.00;98890.34;4192710;28;20019;-69
2023/12/21 07:22:32;;;;;;;;;;;;;;;6.81;100.00;98891.34;4194306;28;20465;-69
2023/12/21 07:24:34;;;;;;;;;;;;;;;6.82;100.00;98906.44;4196175;28;20506;-69
2023/12/21 07:26:36;;;;;;;;;;;;;;;6.82;100.00;98894.88;4194947;28;20024;-69
2023/12/21 07:28:40;;;;;;;;;;;;;;;6.82;100.00;98876.91;4195460;28;20446;-69
2023/12/21 07:30:41;;;;;;;;;;;;;;;6.82;100.00;98874.22;4194899;28;20133;-69
2023/12/21 07:32:43;;;;;;;;;;;;;;;6.83;100.00;98861.63;4194693;28;20015;-69
2023/12/21 07:34:47;;;;;;;;;;;;;;;6.84;100.00;98871.34;4195484;28;20027;-69
2023/12/21 07:36:49;;;;;;;;;;;;;;;6.83;100.00;98853.59;4196110;28;20023;-69
2023/12/21 07:38:51;;;;;;;;;;;;;;;6.84;100.00;98844.53;4195541;28;20039;-69
2023/12/21 07:40:52;;;;;;;;;;;;;;;6.84;100.00;98847.19;4194732;28;20057;-69
2023/12/21 07:42:54;;;;;;;;;;;;;;;6.85;100.00;98848.88;4196592;28;20343;-69
2023/12/21 07:44:55;;;;;;;;;;;;;;;6.85;100.00;98796.00;4196832;28;20024;-69
2023/12/21 07:46:56;;;;;;;;;;;;;;;6.84;100.00;98791.66;4197208;28;19933;-69
2023/12/21 07:48:57;;;;;;;;;;;;;;;6.85;100.00;98803.25;4196004;28;20023;-69
2023/12/21 07:51:01;;;;;;;;;;;;;;;6.84;100.00;98807.75;4194847;28;20019;-69
2023/12/21 07:53:03;;;;;;;;;;;;;;;6.84;100.00;98802.41;4196550;28;19968;-69
2023/12/21 07:55:05;;;;;;;;;;;;;;;6.86;100.00;98780.72;4196616;28;20110;-69
2023/12/21 07:57:06;;;;;;;;;;;;;;;6.86;100.00;98794.16;4196211;28;20450;-69
2023/12/21 07:59:08;;;;;;;;;;;;;;;6.87;100.00;98786.94;4197300;28;19925;-69
2023/12/21 08:01:10;;;;;;;;;;;;;;;6.87;100.00;98776.22;4196491;28;20011;-69
2023/12/21 08:03:12;;;;;;;;;;;;;;;6.85;100.00;98763.81;4195966;28;19997;-69
2023/12/21 08:05:15;;;;;;;;;;;;;;;6.87;100.00;98773.53;4195941;28;20007;-68
2023/12/21 08:07:18;;;;;;;;;;;;;;;6.88;100.00;98737.59;4195455;28;20014;-68
2023/12/21 08:09:20;;;;;;;;;;;;;;;6.88;100.00;98733.06;4195682;28;20022;-68
2023/12/21 08:11:22;;;;;;;;;;;;;;;6.88;100.00;98727.72;4196255;28;20019;-68
2023/12/21 08:13:25;;;;;;;;;;;;;;;6.88;100.00;98716.97;4196054;28;20457;-68
2023/12/21 08:15:27;;;;;;;;;;;;;;;6.89;100.00;98715.09;4195401;28;20024;-68
2023/12/21 08:17:29;;;;;;;;;;;;;;;6.90;100.00;98727.50;4196000;28;20015;-68
2023/12/21 08:19:31;;;;;;;;;;;;;;;6.89;100.00;98704.38;4195194;28;20434;-67
2023/12/21 08:21:33;;;;;;;;;;;;;;;6.88;100.00;98706.25;4194437;28;20024;-67
2023/12/21 08:23:37;;;;;;;;;;;;;;;6.90;100.00;98689.94;4196512;28;20003;-69
2023/12/21 08:25:38;;;;;;;;;;;;;;;6.90;100.00;98688.06;4196970;28;20019;-69
2023/12/21 08:27:41;;;;;;;;;;;;;;;6.91;100.00;98675.47;4197000;28;20019;-69
2023/12/21 08:29:43;;;;;;;;;;;;;;;6.92;100.00;98671.78;4196174;28;20000;-69
2023/12/21 08:31:44;;;;;;;;;;;;;;;6.92;100.00;98672.59;4196412;28;20035;-68
2023/12/21 08:33:46;;;;;;;;;;;;;;;6.91;100.00;98664.75;4195967;28;20015;-69
2023/12/21 08:35:48;;;;;;;;;;;;;;;6.93;100.00;98649.25;4196363;28;20458;-68
2023/12/21 08:37:50;;;;;;;;;;;;;;;6.93;100.00;98651.94;4195155;28;20015;-68
2023/12/21 08:39:54;;;;;;;;;;;;;;;6.93;100.00;98643.88;4195310;28;20027;-68
2023/12/21 08:41:56;;;;;;;;;;;;;;;6.93;100.00;98634.00;4195404;28;20380;-68
2023/12/21 08:43:58;;;;;;;;;;;;;;;6.93;100.00;98617.88;4195686;28;20019;-68
2023/12/21 08:46:00;;;;;;;;;;;;;;;6.94;100.00;98602.59;4194616;28;20369;-68
2023/12/21 08:48:02;;;;;;;;;;;;;;;6.94;100.00;98618.72;4195875;28;20024;-69
2023/12/21 08:50:04;;;;;;;;;;;;;;;6.95;100.00;98604.28;4193467;28;20062;-68
2023/12/21 08:52:06;;;;;;;;;;;;;;;6.95;100.00;98594.34;4195148;28;20019;-68
2023/12/21 08:54:08;;;;;;;;;;;;;;;6.95;100.00;98586.28;4195288;28;20031;-68
2023/12/21 08:56:13;;;;;;;;;;;;;;;6.96;100.00;98587.97;4195752;28;20023;-69
2023/12/21 08:58:15;;;;;;;;;;;;;;;6.97;100.00;98586.91;4195447;28;19991;-69
2023/12/21 09:00:17;;;;;;;;;;;;;;;6.97;100.00;98583.41;4195663;28;19928;-69
2023/12/21 09:02:19;;;;;;;;;;;;;;;6.97;100.00;98567.31;4194880;28;20019;-68
2023/12/21 09:04:21;;;;;;;;;;;;;;;6.98;100.00;98552.88;4195414;28;20015;-68
2023/12/21 09:06:23;;;;;;;;;;;;;;;6.98;100.00;98552.88;4195516;28;20052;-69
2023/12/21 09:08:26;;;;;;;;;;;;;;;6.98;100.00;98540.25;4195471;28;20019;-69
2023/12/21 09:10:28;;;;;;;;;;;;;;;6.99;100.00;98546.44;4195962;28;20027;-69
2023/12/21 09:12:31;;;;;;;;;;;;;;;6.99;100.00;98543.75;4196181;28;19964;-68
2023/12/21 09:14:33;;;;;;;;;;;;;;;6.99;100.00;98530.34;4197395;28;19963;-69
2023/12/21 09:16:35;;;;;;;;;;;;;;;7.01;100.00;98525.63;4197832;28;20011;-69
2023/12/21 09:18:37;;;;;;;;;;;;;;;7.02;100.00;98511.13;4199013;28;19979;-69
2023/12/21 09:20:39;;;;;;;;;;;;;;;7.02;100.00;98489.66;4197174;28;19932;-68
2023/12/21 09:22:41;;;;;;;;;;;;;;;7.02;100.00;98509.31;4196490;28;19967;-68
2023/12/21 09:24:43;;;;;;;;;;;;;;;7.02;100.00;98503.09;4190297;28;19987;-69
2023/12/21 09:26:45;;;;;;;;;;;;;;;7.02;100.00;98511.97;4194905;28;20011;-68
2023/12/21 09:28:49;;;;;;;;;;;;;;;7.03;100.00;98484.09;4194593;28;20020;-68
2023/12/21 09:30:51;;;;;;;;;;;;;;;7.03;100.00;98488.63;4195403;28;20442;-68
2023/12/21 09:32:53;;;;;;;;;;;;;;;7.03;100.00;98478.72;4194323;28;20020;-69
2023/12/21 09:34:57;;;;;;;;;;;;;;;7.05;100.00;98483.88;4194220;28;20022;-68
2023/12/21 09:36:59;;;;;;;;;;;;;;;7.05;100.00;98478.50;4193637;28;20023;-68
2023/12/21 09:39:04;;;;;;;;;;;;;;;7.05;100.00;98451.66;4195206;28;20022;-68
2023/12/21 09:41:07;;;;;;;;;;;;;;;7.06;100.00;98471.31;4194799;28;20442;-68
2023/12/21 09:43:09;;;;;;;;;;;;;;;7.06;100.00;98464.06;4195354;28;20031;-68
2023/12/21 09:45:11;;;;;;;;;;;;;;;7.07;100.00;98446.94;4195283;28;20027;-69
2023/12/21 09:47:19;;;;;;;;;;;;;;;7.06;100.00;98439.09;4195180;28;20051;-68
2023/12/21 09:49:27;;;;;;;;;;;;;;;7.07;100.00;98422.78;4194413;28;20023;-68
2023/12/21 09:51:29;;;;;;;;;;;;;;;7.08;100.00;98434.34;4194527;28;20363;-69
2023/12/21 09:53:33;;;;;;;;;;;;;;;7.08;100.00;98443.19;4195123;28;20024;-68
2023/12/21 09:55:39;;;;;;;;;;;;;;;7.09;100.00;98419.88;4194622;28;20015;-69
2023/12/21 09:57:43;;;;;;;;;;;;;;;7.09;100.00;98390.38;4195513;28;20023;-69
2023/12/21 09:59:45;;;;;;;;;;;;;;;7.08;100.00;98384.16;4195254;28;20015;-68
2023/12/21 10:01:50;;;;;;;;;;;;;;;7.10;100.00;98400.88;4194930;28;19928;-68
2023/12/21 10:03:52;;;;;;;;;;;;;;;7.11;100.00;98386.41;4195121;28;20022;-68
2023/12/21 10:05:54;;;;;;;;;;;;;;;7.11;100.00;98359.56;4194849;28;20019;-68
2023/12/21 10:08:02;;;;;;;;;;;;;;;7.12;100.00;98352.34;4189665;28;19928;-68
2023/12/21 10:10:07;;;;;;;;;;;;;;;7.13;100.00;98346.78;4194656;28;20015;-68
2023/12/21 10:12:09;;;;;;;;;;;;;;;7.13;100.00;98340.56;4194516;28;20027;-68
2023/12/21 10:14:15;;;;;;;;;;;;;;;7.14;100.00;98344.91;4195290;28;19955;-68
2023/12/21 10:16:17;;;;;;;;;;;;;;;7.14;100.00;98345.72;4198095;28;20020;-68
2023/12/21 10:18:20;;;;;;;;;;;;;;;7.14;100.00;98339.53;4197990;28;20015;-68
2023/12/21 10:20:26;;;;;;;;;;;;;;;7.15;100.00;98325.09;4197217;28;19955;-68
2023/12/21 10:22:34;;;;;;;;;;;;;;;7.14;100.00;98340.34;4197633;28;19925;-68
2023/12/21 10:24:38;;;;;;;;;;;;;;;7.16;100.00;98313.28;4197947;28;20412;-69
2023/12/21 10:26:43;;;;;;;;;;;;;;;7.16;100.00;98249.72;4197886;28;20035;-68
2023/12/21 10:28:47;;;;;;;;;;;;;;;7.17;100.00;98280.06;4198433;28;20022;-69
2023/12/21 10:30:52;;;;;;;;;;;;;;;7.17;100.00;98310.41;4198576;28;20011;-70
2023/12/21 10:32:57;;;;;;;;;;;;;;;7.17;100.00;98306.91;4195614;28;20003;-67
2023/12/21 10:35:00;;;;;;;;;;;;;;;7.17;100.00;98296.97;4198341;28;19956;-68
2023/12/21 10:37:08;;;;;;;;;;;;;;;7.17;100.00;98258.56;4197282;28;20019;-68
2023/12/21 10:39:14;;;;;;;;;;;;;;;7.18;100.00;98295.13;4197798;28;20011;-68
2023/12/21 10:41:16;;;;;;;;;;;;;;;7.17;100.00;98219.13;4196572;28;20019;-67